Daiwan Elegance — HOVX — position and weather

sailwx.info

Track history (hours):
 
Tides and Currents Weather Stations Pressure Air Temp Water Temp Dewpoint Dewpoint Depression Visibility Wind Speed Wind Dir Waves Ship Positions

Daiwan Elegance

Last reported at 2018-Apr-03 22:09 UTC. Time now 2018-Apr-22 16:18 UTC.
Position N 11°08' W 074°52'.
Warning: this ship's position is 18 days out of date.

Length 174 m; draft 6.5 m.

Type: Cargo ship. MMSI: 370189000.

Date/timePositionNaut miles runAvg speedWind from/ knotsBaromVisibWave heightAir tempDewpointWater temp
2018-Apr-03 22:09N 11°08' W 074°52'1 8.3
2018-Apr-03 22:00N 11°07' W 074°52'510.1
2018-Apr-03 21:28N 11°02' W 074°49'6 0.9
2018-Apr-03 15:07N 10°58' W 074°46'0 0.0
2018-Apr-03 14:58N 10°58' W 074°46'0 0.0
2018-Apr-03 14:28N 10°58' W 074°46'0 0.0
2018-Apr-02 21:37N 10°58' W 074°46'0 0.0
2018-Apr-02 21:28N 10°58' W 074°46'0 0.0
2018-Apr-02 20:55N 10°58' W 074°46'0 0.0
2018-Apr-02 20:28N 10°58' W 074°46'0 0.0
2018-Apr-02 19:58N 10°58' W 074°46'0 0.0
2018-Apr-02 19:25N 10°58' W 074°46'0 0.0
2018-Apr-02 18:52N 10°58' W 074°46'0 0.0
2018-Apr-02 18:25N 10°58' W 074°46'0 0.0
2018-Apr-02 17:58N 10°58' W 074°46'0 0.0
2018-Apr-02 13:52N 10°58' W 074°46'0 0.0
2018-Apr-02 13:28N 10°58' W 074°46'0 0.0
2018-Apr-02 13:01N 10°58' W 074°46'0 0.0
2018-Apr-02 01:04N 10°58' W 074°46'0 0.0
2018-Apr-02 00:46N 10°58' W 074°46'0 0.0
2018-Apr-02 00:25N 10°58' W 074°46'0 0.0
2018-Apr-01 23:52N 10°58' W 074°46'0 0.0
2018-Apr-01 15:52N 10°58' W 074°46'0 0.0
2018-Apr-01 15:28N 10°58' W 074°46'0 0.0
2018-Apr-01 14:58N 10°58' W 074°46'0 0.0
2018-Apr-01 14:31N 10°58' W 074°46'0 0.0
2018-Apr-01 02:07N 10°58' W 074°46'0 0.0
2018-Apr-01 01:55N 10°58' W 074°46'0 0.0
2018-Apr-01 01:28N 10°58' W 074°46'0 0.0
2018-Apr-01 00:58N 10°58' W 074°46'0 0.0
2018-Apr-01 00:31N 10°58' W 074°46'0 0.0
2018-Mar-31 23:58N 10°58' W 074°46'0 0.0
2018-Mar-31 23:28N 10°58' W 074°46'0 0.0
2018-Mar-31 18:43N 10°58' W 074°46'0 0.0
2018-Mar-31 18:31N 10°58' W 074°46'0 0.0
2018-Mar-31 18:01N 10°58' W 074°46'0 0.0
2018-Mar-31 17:28N 10°58' W 074°46'0 0.0
2018-Mar-31 16:58N 10°58' W 074°46'0 0.0
2018-Mar-31 16:25N 10°58' W 074°46'0 0.0
2018-Mar-31 15:58N 10°58' W 074°46'0 0.0
2018-Mar-31 15:28N 10°58' W 074°46'0 0.0
2018-Mar-31 14:58N 10°58' W 074°46'1 0.8
2018-Mar-31 14:10N 10°58' W 074°45'1 6.3
2018-Mar-31 13:57N 10°60' W 074°46'5 9.6
2018-Mar-31 13:28N 11°03' W 074°49'5 9.2
2018-Mar-31 12:58N 11°07' W 074°51'4 0.2
2018-Mar-30 22:28N 11°06' W 074°55'2 4.4
2018-Mar-30 21:54N 11°09' W 074°54'2 4.3
2018-Mar-30 21:29N 11°10' W 074°52'2 4.4
2018-Mar-30 21:00N 11°11' W 074°51'  
Track history (hours):
 
Tides and Currents Weather Stations Pressure Air Temp Water Temp Dewpoint Dewpoint Depression Visibility Wind Speed Wind Dir Waves Ship Positions

Daiwan Elegance

Last reported at 2018-Apr-03 22:09 UTC. Time now 2018-Apr-22 16:18 UTC.
Position N 11°08' W 074°52'.
Warning: this ship's position is 18 days out of date.

Length 174 m; draft 6.5 m.

Type: Cargo ship. MMSI: 370189000.

Date/timePositionNaut miles runAvg speedWind from/ knotsBaromVisibWave heightAir tempDewpointWater temp
2018-Apr-03 22:09N 11°08' W 074°52'1 8.3
2018-Apr-03 22:00N 11°07' W 074°52'510.1
2018-Apr-03 21:28N 11°02' W 074°49'6 0.9
2018-Apr-03 15:07N 10°58' W 074°46'0 0.0
2018-Apr-03 14:58N 10°58' W 074°46'0 0.0
2018-Apr-03 14:28N 10°58' W 074°46'0 0.0
2018-Apr-02 21:37N 10°58' W 074°46'0 0.0
2018-Apr-02 21:28N 10°58' W 074°46'0 0.0
2018-Apr-02 20:55N 10°58' W 074°46'0 0.0
2018-Apr-02 20:28N 10°58' W 074°46'0 0.0
2018-Apr-02 19:58N 10°58' W 074°46'0 0.0
2018-Apr-02 19:25N 10°58' W 074°46'0 0.0
2018-Apr-02 18:52N 10°58' W 074°46'0 0.0
2018-Apr-02 18:25N 10°58' W 074°46'0 0.0
2018-Apr-02 17:58N 10°58' W 074°46'0 0.0
2018-Apr-02 13:52N 10°58' W 074°46'0 0.0
2018-Apr-02 13:28N 10°58' W 074°46'0 0.0
2018-Apr-02 13:01N 10°58' W 074°46'0 0.0
2018-Apr-02 01:04N 10°58' W 074°46'0 0.0
2018-Apr-02 00:46N 10°58' W 074°46'0 0.0
2018-Apr-02 00:25N 10°58' W 074°46'0 0.0
2018-Apr-01 23:52N 10°58' W 074°46'0 0.0
2018-Apr-01 15:52N 10°58' W 074°46'0 0.0
2018-Apr-01 15:28N 10°58' W 074°46'0 0.0
2018-Apr-01 14:58N 10°58' W 074°46'0 0.0
2018-Apr-01 14:31N 10°58' W 074°46'0 0.0
2018-Apr-01 02:07N 10°58' W 074°46'0 0.0
2018-Apr-01 01:55N 10°58' W 074°46'0 0.0
2018-Apr-01 01:28N 10°58' W 074°46'0 0.0
2018-Apr-01 00:58N 10°58' W 074°46'0 0.0
2018-Apr-01 00:31N 10°58' W 074°46'0 0.0
2018-Mar-31 23:58N 10°58' W 074°46'0 0.0
2018-Mar-31 23:28N 10°58' W 074°46'0 0.0
2018-Mar-31 18:43N 10°58' W 074°46'0 0.0
2018-Mar-31 18:31N 10°58' W 074°46'0 0.0
2018-Mar-31 18:01N 10°58' W 074°46'0 0.0
2018-Mar-31 17:28N 10°58' W 074°46'0 0.0
2018-Mar-31 16:58N 10°58' W 074°46'0 0.0
2018-Mar-31 16:25N 10°58' W 074°46'0 0.0
2018-Mar-31 15:58N 10°58' W 074°46'0 0.0
2018-Mar-31 15:28N 10°58' W 074°46'0 0.0
2018-Mar-31 14:58N 10°58' W 074°46'1 0.8
2018-Mar-31 14:10N 10°58' W 074°45'1 6.3
2018-Mar-31 13:57N 10°60' W 074°46'5 9.6
2018-Mar-31 13:28N 11°03' W 074°49'5 9.2
2018-Mar-31 12:58N 11°07' W 074°51'4 0.2
2018-Mar-30 22:28N 11°06' W 074°55'2 4.4
2018-Mar-30 21:54N 11°09' W 074°54'2 4.3
2018-Mar-30 21:29N 11°10' W 074°52'2 4.4
2018-Mar-30 21:00N 11°11' W 074°51'  

Dump ship's entire track history